Time;durP1;ratioP1;P1;durP2;ratioP2;P2;SDS_P1;SDS_P2;PMS_P1;PMS_P2;Temp;Humidity;BMP_temperature;BMP_pressure;BME280_temperature;BME280_humidity;BME280_pressure;Samples;Min_cycle;Max_cycle;Signal;HPM_P1;HPM_P2
2021/05/26 07:12:52;;;;;;;1.53;0.80;;;13.70;99.90;;;;;;4993383;23;20234;-70
2021/05/26 07:15:20;;;;;;;1.27;0.80;;;13.70;99.90;;;;;;4992913;28;20215;-85
2021/05/26 07:17:47;;;;;;;3.17;1.07;;;13.70;99.90;;;;;;4993181;28;20593;-82
2021/05/26 07:20:15;;;;;;;3.30;1.37;;;13.80;99.90;;;;;;4994007;28;20293;-76
2021/05/26 07:22:42;;;;;;;4.73;1.00;;;14.00;99.90;;;;;;4972959;28;20216;-70
2021/05/26 07:25:09;;;;;;;1.30;0.70;;;13.90;99.90;;;;;;4954349;28;20267;-79
2021/05/26 07:27:35;;;;;;;3.90;0.80;;;14.00;99.90;;;;;;4953997;28;20298;-69
2021/05/26 07:30:03;;;;;;;1.17;0.77;;;14.00;99.90;;;;;;4957257;28;20602;-69
2021/05/26 07:32:33;;;;;;;1.93;0.80;;;13.90;99.90;;;;;;4975373;28;20209;-71
2021/05/26 07:34:59;;;;;;;1.50;0.87;;;14.00;99.90;;;;;;4954187;28;20212;-72
2021/05/26 07:37:25;;;;;;;2.13;0.80;;;14.00;99.90;;;;;;4954535;29;20204;-72
2021/05/26 07:39:52;;;;;;;3.00;1.00;;;14.20;99.90;;;;;;4953910;28;20606;-71
2021/05/26 07:42:18;;;;;;;2.50;0.77;;;14.40;99.90;;;;;;4954028;28;20250;-73
2021/05/26 07:44:44;;;;;;;2.17;0.97;;;14.50;99.90;;;;;;4953633;28;20212;-77
2021/05/26 07:47:12;;;;;;;2.97;0.80;;;14.80;99.90;;;;;;4955800;28;20226;-71
2021/05/26 07:49:38;;;;;;;3.97;0.87;;;15.20;99.90;;;;;;4957416;28;20781;-70
2021/05/26 07:52:07;;;;;;;1.10;0.70;;;15.60;99.90;;;;;;4957231;28;20238;-73
2021/05/26 07:54:34;;;;;;;1.77;0.80;;;16.00;99.90;;;;;;4957688;28;20222;-72
2021/05/26 07:57:01;;;;;;;2.43;1.00;;;16.20;99.90;;;;;;4957702;28;20204;-75
2021/05/26 07:59:28;;;;;;;0.80;0.60;;;16.10;99.90;;;;;;4957535;29;20238;-71
2021/05/26 08:01:54;;;;;;;2.87;0.53;;;16.00;99.90;;;;;;4957937;28;20606;-75
2021/05/26 08:04:21;;;;;;;2.43;0.77;;;15.80;99.90;;;;;;4957194;29;20237;-71
2021/05/26 08:06:48;;;;;;;2.13;0.70;;;15.80;99.90;;;;;;4964558;28;20613;-71
2021/05/26 08:09:14;;;;;;;2.43;0.83;;;15.60;99.90;;;;;;4981918;28;20227;-70
2021/05/26 08:11:41;;;;;;;1.27;0.80;;;15.60;99.90;;;;;;4956822;28;20215;-70
2021/05/26 08:14:07;;;;;;;1.07;0.73;;;15.60;99.90;;;;;;4956959;28;20728;-71
2021/05/26 08:16:33;;;;;;;4.33;0.77;;;15.60;99.90;;;;;;4957468;28;20218;-71
2021/05/26 08:19:00;;;;;;;1.40;0.63;;;15.50;99.90;;;;;;4957011;28;20234;-70
2021/05/26 08:21:27;;;;;;;1.47;0.80;;;15.50;99.90;;;;;;4956604;28;20670;-71
2021/05/26 08:23:53;;;;;;;1.73;0.70;;;16.20;99.90;;;;;;4957191;28;20603;-71
2021/05/26 08:26:22;;;;;;;2.27;0.63;;;16.80;99.90;;;;;;4956829;28;20212;-75
2021/05/26 08:28:48;;;;;;;1.00;0.50;;;17.00;99.90;;;;;;4956801;28;20706;-71
2021/05/26 08:31:15;;;;;;;2.67;0.73;;;17.00;99.90;;;;;;4956863;28;20603;-72
2021/05/26 08:33:41;;;;;;;3.80;0.70;;;17.50;99.90;;;;;;4956461;28;20212;-71
2021/05/26 08:36:08;;;;;;;2.93;0.90;;;18.20;99.90;;;;;;4956584;28;20215;-71
2021/05/26 08:38:36;;;;;;;1.20;0.60;;;19.30;99.90;;;;;;4956347;28;20228;-73
2021/05/26 08:41:06;;;;;;;1.13;0.63;;;20.50;99.90;;;;;;4956104;28;20231;-72
2021/05/26 08:43:34;;;;;;;0.70;0.50;;;21.30;99.20;;;;;;4956360;28;20243;-74
2021/05/26 08:46:02;;;;;;;1.55;0.60;;;21.80;98.20;;;;;;4956544;28;20212;-73
2021/05/26 08:48:30;;;;;;;1.15;0.50;;;21.50;96.70;;;;;;4956378;28;20228;-76
2021/05/26 08:50:56;;;;;;;1.88;0.80;;;22.50;96.70;;;;;;4956366;28;20208;-76
2021/05/26 08:53:23;;;;;;;1.60;0.70;;;22.20;95.60;;;;;;4956290;28;20204;-72
2021/05/26 08:55:51;;;;;;;1.80;0.80;;;21.10;96.50;;;;;;4956271;28;20571;-73
2021/05/26 08:58:17;;;;;;;1.83;0.75;;;21.20;97.50;;;;;;4956212;28;20208;-75
2021/05/26 09:00:43;;;;;;;1.75;0.73;;;21.40;96.30;;;;;;4956418;29;20235;-71
2021/05/26 09:03:10;;;;;;;2.53;1.60;;;21.00;96.70;;;;;;4956223;28;20212;-74
2021/05/26 09:05:36;;;;;;;1.30;0.70;;;20.10;97.30;;;;;;4956419;29;20212;-73
2021/05/26 09:08:17;;;;;;;1.77;0.77;;;20.00;98.80;;;;;;4956056;29;20678;-72
2021/05/26 09:10:52;;;;;;;1.17;0.70;;;21.00;97.70;;;;;;4956098;29;20662;-72
2021/05/26 09:13:29;;;;;;;2.13;0.80;;;20.80;97.40;;;;;;4955898;28;20225;-72
2021/05/26 09:15:55;;;;;;;1.88;0.93;;;20.20;97.20;;;;;;4956111;29;20207;-70
2021/05/26 09:18:22;;;;;;;1.60;1.10;;;19.30;98.60;;;;;;4955970;29;20282;-73
2021/05/26 09:20:48;;;;;;;2.83;0.80;;;18.80;99.00;;;;;;4955841;29;20240;-72
2021/05/26 09:23:18;;;;;;;1.60;0.87;;;18.10;99.90;;;;;;4955878;29;20208;-72
2021/05/26 09:25:53;;;;;;;1.37;1.03;;;17.90;99.90;;;;;;4955835;28;20215;-71
2021/05/26 09:28:25;;;;;;;3.67;1.10;;;17.90;99.90;;;;;;4955698;29;20231;-71
2021/05/26 09:30:57;;;;;;;2.63;1.07;;;17.70;99.90;;;;;;4955429;28;20204;-71
2021/05/26 09:33:32;;;;;;;1.00;0.90;;;17.50;99.90;;;;;;4955463;28;20667;-72
2021/05/26 09:36:14;;;;;;;1.47;1.00;;;17.10;99.90;;;;;;4955473;28;20682;-71
2021/05/26 09:38:41;;;;;;;1.93;1.10;;;17.30;99.90;;;;;;4955822;29;20252;-71
2021/05/26 09:41:10;;;;;;;3.57;1.27;;;17.80;99.90;;;;;;4955684;28;20327;-72
2021/05/26 09:43:47;;;;;;;2.23;1.40;;;18.10;99.90;;;;;;4955364;28;20220;-72
2021/05/26 09:46:21;;;;;;;2.20;0.80;;;18.40;99.90;;;;;;4955493;28;20258;-75
2021/05/26 09:49:04;;;;;;;2.50;1.00;;;18.70;99.90;;;;;;4955208;28;20310;-74
2021/05/26 09:51:32;;;;;;;2.07;1.23;;;18.80;99.90;;;;;;4955335;28;20230;-74
2021/05/26 09:54:12;;;;;;;2.13;1.00;;;18.70;99.90;;;;;;4955519;28;20216;-75
2021/05/26 09:56:39;;;;;;;1.30;0.80;;;19.40;99.90;;;;;;4955532;28;20214;-75
2021/05/26 09:59:07;;;;;;;1.35;1.00;;;20.00;98.70;;;;;;4955007;28;20770;-72
2021/05/26 10:01:34;;;;;;;6.80;1.30;;;19.80;99.00;;;;;;4955207;28;20208;-73
2021/05/26 10:04:01;;;;;;;3.38;1.15;;;19.70;98.80;;;;;;4955033;28;20208;-75
2021/05/26 10:06:29;;;;;;;2.95;1.60;;;19.60;99.10;;;;;;4955078;28;20663;-73
2021/05/26 10:08:56;;;;;;;4.07;1.00;;;19.40;99.30;;;;;;4954853;28;20781;-73
2021/05/26 10:11:23;;;;;;;1.85;1.20;;;19.00;99.50;;;;;;4955035;28;20219;-72
2021/05/26 10:13:51;;;;;;;3.23;1.20;;;18.40;99.90;;;;;;4954871;28;20243;-73
2021/05/26 10:16:18;;;;;;;2.73;1.57;;;17.80;99.90;;;;;;4954980;28;20208;-74
2021/05/26 10:18:45;;;;;;;2.07;1.27;;;17.60;99.90;;;;;;4954757;28;20264;-71
2021/05/26 10:21:15;;;;;;;3.43;1.37;;;17.30;99.90;;;;;;4955133;28;20239;-73
2021/05/26 10:23:42;;;;;;;4.70;1.70;;;17.10;99.90;;;;;;4955236;28;20212;-72
2021/05/26 10:26:08;;;;;;;2.03;1.30;;;17.20;99.90;;;;;;4954810;28;20212;-72
2021/05/26 10:28:35;;;;;;;2.93;1.70;;;17.50;99.90;;;;;;4954682;28;20298;-73
2021/05/26 10:31:03;;;;;;;3.03;1.50;;;17.70;99.90;;;;;;4954864;28;20208;-73
2021/05/26 10:33:54;;;;;;;2.47;1.60;;;17.80;99.90;;;;;;4954578;28;20212;-73
2021/05/26 10:36:21;;;;;;;3.20;1.40;;;17.70;99.90;;;;;;4940625;28;20344;-71
2021/05/26 10:38:55;;;;;;;3.07;1.77;;;17.20;99.90;;;;;;4955109;28;20330;-72
2021/05/26 10:41:21;;;;;;;4.47;1.83;;;17.20;99.90;;;;;;4954199;28;20595;-74
2021/05/26 10:43:52;;;;;;;3.60;1.63;;;17.10;99.90;;;;;;4954083;28;20208;-72
2021/05/26 10:46:34;;;;;;;2.30;1.80;;;16.90;99.90;;;;;;4954048;28;20211;-71
2021/05/26 10:49:19;;;;;;;5.37;1.80;;;16.80;99.90;;;;;;4954679;28;20264;-71
2021/05/26 10:52:10;;;;;;;6.83;2.30;;;16.80;99.90;;;;;;4954336;28;20275;-70
2021/05/26 10:55:01;;;;;;;4.80;1.70;;;16.90;99.90;;;;;;4954779;28;20204;-72
2021/05/26 10:57:29;;;;;;;2.50;1.57;;;17.20;99.90;;;;;;4954669;28;20214;-70
2021/05/26 11:00:25;;;;;;;3.00;1.70;;;17.50;99.90;;;;;;4954488;28;20697;-74
2021/05/26 11:03:30;;;;;;;2.87;1.47;;;17.80;99.90;;;;;;4954781;28;20259;-71
2021/05/26 11:05:58;;;;;;;1.60;1.20;;;17.70;99.90;;;;;;4953587;28;20750;-70
2021/05/26 11:08:43;;;;;;;3.03;1.33;;;17.60;99.90;;;;;;4956113;28;20295;-70
2021/05/26 11:11:40;;;;;;;2.00;1.50;;;17.50;99.90;;;;;;4956471;28;20624;-70
2021/05/26 11:14:27;;;;;;;3.40;1.37;;;17.20;99.90;;;;;;4957094;28;20319;-72
2021/05/26 11:17:36;;;;;;;3.70;1.60;;;17.30;99.90;;;;;;4958913;28;20218;-70
2021/05/26 11:20:12;;;;;;;2.30;1.67;;;17.30;99.90;;;;;;4955714;28;20231;-75
2021/05/26 11:22:38;;;;;;;3.17;1.40;;;17.40;99.90;;;;;;4958251;28;20208;-70
2021/05/26 11:25:08;;;;;;;1.80;1.40;;;17.50;99.90;;;;;;4966632;28;20609;-70
2021/05/26 11:27:35;;;;;;;3.60;1.27;;;17.40;99.90;;;;;;4962583;28;20211;-75
2021/05/26 11:30:03;;;;;;;4.33;1.20;;;16.90;99.90;;;;;;4965706;28;20283;-75
2021/05/26 11:32:30;;;;;;;2.07;1.43;;;16.10;99.90;;;;;;4969608;28;20256;-76
2021/05/26 11:35:01;;;;;;;1.53;0.93;;;15.70;99.90;;;;;;4966994;28;20203;-71
2021/05/26 11:37:31;;;;;;;2.00;1.40;;;15.60;99.90;;;;;;4957326;28;20204;-70
2021/05/26 11:39:58;;;;;;;1.53;1.10;;;15.70;99.90;;;;;;4962152;28;20289;-76
2021/05/26 11:42:27;;;;;;;2.77;1.47;;;15.80;99.90;;;;;;4958803;28;20212;-68
2021/05/26 11:44:55;;;;;;;1.90;1.40;;;16.10;99.90;;;;;;4964937;28;20743;-69
2021/05/26 11:47:32;;;;;;;3.27;1.53;;;16.60;99.90;;;;;;4966362;28;20287;-73
2021/05/26 11:49:59;;;;;;;2.13;1.50;;;17.20;99.90;;;;;;4960990;28;20310;-73
2021/05/26 11:52:27;;;;;;;3.13;1.87;;;17.50;99.90;;;;;;4961305;28;20627;-71
2021/05/26 11:54:56;;;;;;;3.33;2.00;;;17.60;99.90;;;;;;4960549;28;20220;-69
2021/05/26 11:57:31;;;;;;;3.10;1.60;;;17.70;99.90;;;;;;4958331;28;20208;-70
2021/05/26 11:59:57;;;;;;;2.30;1.60;;;18.00;99.90;;;;;;4960827;28;20231;-70
2021/05/26 12:02:23;;;;;;;1.97;1.70;;;17.70;99.90;;;;;;4957202;28;20204;-71
2021/05/26 12:04:50;;;;;;;2.53;1.40;;;17.40;99.90;;;;;;4957989;28;20244;-76
2021/05/26 12:07:23;;;;;;;5.50;1.70;;;17.00;99.90;;;;;;4964069;28;20604;-69
2021/05/26 12:09:55;;;;;;;2.40;1.00;;;16.80;99.90;;;;;;4962085;28;20282;-70
2021/05/26 12:12:23;;;;;;;2.73;1.00;;;17.00;99.90;;;;;;4962621;28;20219;-70
2021/05/26 12:14:50;;;;;;;2.57;0.80;;;17.20;99.90;;;;;;4961085;28;20294;-71
2021/05/26 12:17:17;;;;;;;1.23;0.60;;;17.50;99.90;;;;;;4961794;28;20203;-70
2021/05/26 12:19:44;;;;;;;1.37;0.70;;;17.80;99.90;;;;;;4972493;28;20690;-70
2021/05/26 12:22:16;;;;;;;2.10;0.80;;;17.90;99.90;;;;;;4971795;28;20204;-70
2021/05/26 12:24:58;;;;;;;4.13;1.00;;;17.30;99.90;;;;;;4961660;28;20655;-72
2021/05/26 12:27:37;;;;;;;1.13;0.70;;;16.90;99.90;;;;;;4956261;28;20298;-71
2021/05/26 12:30:15;;;;;;;1.17;0.40;;;16.40;99.90;;;;;;4955769;28;20235;-79
2021/05/26 12:32:42;;;;;;;0.80;0.53;;;15.70;99.90;;;;;;4955640;28;20218;-69
2021/05/26 12:35:13;;;;;;;2.40;0.60;;;15.60;99.90;;;;;;4956886;28;20212;-71
2021/05/26 12:37:39;;;;;;;2.50;0.60;;;15.50;99.90;;;;;;4956125;28;20214;-73
2021/05/26 12:40:08;;;;;;;1.10;0.87;;;15.80;99.90;;;;;;4957170;28;20235;-73
2021/05/26 12:42:36;;;;;;;2.07;1.20;;;16.10;99.90;;;;;;4955949;28;20218;-72
2021/05/26 12:45:19;;;;;;;3.20;1.03;;;16.20;99.90;;;;;;4956093;28;20208;-72
2021/05/26 12:47:47;;;;;;;3.37;0.87;;;16.30;99.90;;;;;;4955589;28;20824;-71
2021/05/26 12:50:15;;;;;;;4.53;1.10;;;16.60;99.90;;;;;;4955872;29;20228;-72
2021/05/26 12:52:42;;;;;;;2.23;0.87;;;16.80;99.90;;;;;;4956310;28;20207;-72
2021/05/26 12:55:12;;;;;;;3.10;0.90;;;17.00;99.90;;;;;;4955310;28;20630;-72
2021/05/26 12:57:41;;;;;;;2.23;0.90;;;17.40;99.90;;;;;;4955368;28;20208;-71
2021/05/26 13:00:09;;;;;;;2.63;1.07;;;17.30;99.90;;;;;;4955984;28;20239;-74
2021/05/26 13:02:37;;;;;;;3.90;1.20;;;17.00;99.90;;;;;;4956445;28;20211;-75
2021/05/26 13:05:05;;;;;;;1.13;0.67;;;17.10;99.90;;;;;;4956307;28;20208;-75
2021/05/26 13:07:34;;;;;;;2.27;0.97;;;17.10;99.90;;;;;;4964650;28;20208;-76
2021/05/26 13:10:21;;;;;;;2.27;1.00;;;17.20;99.90;;;;;;4956519;28;20371;-73
2021/05/26 13:12:47;;;;;;;1.60;0.77;;;17.20;99.90;;;;;;4955691;28;20220;-75
2021/05/26 13:15:29;;;;;;;1.27;0.43;;;17.20;99.90;;;;;;4955912;28;20208;-74
2021/05/26 13:17:56;;;;;;;2.33;0.50;;;17.50;99.90;;;;;;4959905;28;20246;-73
2021/05/26 13:20:26;;;;;;;2.20;0.43;;;17.60;99.90;;;;;;4974812;28;20261;-72
2021/05/26 13:22:53;;;;;;;0.80;0.40;;;17.80;99.80;;;;;;4987920;28;20584;-73
2021/05/26 13:25:21;;;;;;;0.70;0.50;;;18.00;99.40;;;;;;4994655;28;20206;-76
2021/05/26 13:27:51;;;;;;;1.03;0.50;;;18.10;99.80;;;;;;4975370;28;20558;-75
2021/05/26 13:30:19;;;;;;;2.37;0.67;;;17.90;99.50;;;;;;4975230;28;20227;-71
2021/05/26 13:32:45;;;;;;;3.90;0.60;;;17.90;99.90;;;;;;4974634;28;20218;-70
2021/05/26 13:35:12;;;;;;;2.27;0.77;;;17.30;99.90;;;;;;4975181;28;20203;-73
2021/05/26 13:37:38;;;;;;;1.33;0.67;;;16.70;99.90;;;;;;4963204;28;20215;-74
2021/05/26 13:40:06;;;;;;;3.20;0.77;;;16.50;99.90;;;;;;4969087;28;20613;-74
2021/05/26 13:42:35;;;;;;;2.43;0.87;;;16.30;99.90;;;;;;4975300;28;20213;-76
2021/05/26 13:45:02;;;;;;;1.80;0.90;;;16.30;99.90;;;;;;4993167;28;20657;-73
2021/05/26 13:47:28;;;;;;;2.63;0.97;;;16.20;99.90;;;;;;4953891;28;20242;-73
2021/05/26 13:49:54;;;;;;;1.90;0.90;;;16.20;99.90;;;;;;4955164;28;20231;-74
2021/05/26 13:52:21;;;;;;;2.13;1.00;;;16.30;99.90;;;;;;4955450;29;20278;-74
2021/05/26 13:54:47;;;;;;;2.87;1.17;;;16.60;99.90;;;;;;4957950;28;20214;-74
2021/05/26 13:57:13;;;;;;;3.37;0.80;;;16.90;99.90;;;;;;4993603;28;20206;-72
2021/05/26 13:59:40;;;;;;;3.90;0.80;;;17.00;99.90;;;;;;4992686;28;20582;-72
2021/05/26 14:02:08;;;;;;;2.27;1.07;;;16.70;99.90;;;;;;4993587;28;20684;-73
2021/05/26 14:04:34;;;;;;;4.67;1.00;;;16.50;99.90;;;;;;4993496;28;20727;-72
2021/05/26 14:07:00;;;;;;;0.73;0.63;;;16.30;99.90;;;;;;4982700;28;20209;-71
2021/05/26 14:09:27;;;;;;;1.30;1.03;;;16.10;99.90;;;;;;4957059;28;20215;-75
2021/05/26 14:11:53;;;;;;;0.80;0.60;;;16.00;99.90;;;;;;4967923;28;20207;-73
2021/05/26 14:14:20;;;;;;;1.80;0.77;;;16.10;99.90;;;;;;4974060;28;20207;-74
2021/05/26 14:16:47;;;;;;;0.90;0.70;;;16.20;99.90;;;;;;4973860;28;20207;-74
2021/05/26 14:19:14;;;;;;;1.30;0.80;;;16.40;99.90;;;;;;4973974;28;20278;-71
2021/05/26 14:21:40;;;;;;;1.30;1.00;;;16.40;99.90;;;;;;4973394;28;20336;-77
2021/05/26 14:24:07;;;;;;;2.63;1.20;;;16.10;99.90;;;;;;4973809;28;20211;-70
2021/05/26 14:26:34;;;;;;;1.23;1.00;;;15.90;99.90;;;;;;4973533;28;20207;-72
2021/05/26 14:29:01;;;;;;;2.90;1.20;;;15.80;99.90;;;;;;4973216;28;20642;-72
2021/05/26 14:31:27;;;;;;;3.07;1.30;;;15.60;99.90;;;;;;4976402;28;20223;-72
2021/05/26 14:33:54;;;;;;;2.00;1.10;;;15.60;99.90;;;;;;4993274;28;20221;-77
2021/05/26 14:36:23;;;;;;;2.10;1.40;;;15.50;99.90;;;;;;4957238;28;20200;-73
2021/05/26 14:38:59;;;;;;;2.33;1.50;;;15.40;99.90;;;;;;4954326;29;20274;-71
2021/05/26 14:41:27;;;;;;;1.33;1.00;;;15.50;99.90;;;;;;4953543;28;20598;-70
2021/05/26 14:43:53;;;;;;;2.20;1.30;;;15.50;99.90;;;;;;4954223;28;20211;-70
2021/05/26 14:46:21;;;;;;;2.30;1.60;;;15.60;99.90;;;;;;4954525;28;20208;-71
2021/05/26 14:48:47;;;;;;;2.20;1.20;;;15.50;99.90;;;;;;4954021;28;20311;-70
2021/05/26 14:51:15;;;;;;;2.73;1.30;;;15.70;99.90;;;;;;4954305;28;20216;-70
2021/05/26 14:53:42;;;;;;;1.43;0.87;;;15.90;99.90;;;;;;4954213;28;20204;-70
2021/05/26 14:56:11;;;;;;;2.30;1.00;;;16.10;99.90;;;;;;4955769;28;20212;-70
2021/05/26 14:58:38;;;;;;;1.30;1.00;;;16.20;99.90;;;;;;4957975;28;20699;-70
2021/05/26 15:01:05;;;;;;;2.47;1.00;;;16.30;99.90;;;;;;4962301;28;20702;-69
2021/05/26 15:03:31;;;;;;;2.03;1.13;;;16.20;99.90;;;;;;4958543;28;20210;-71
2021/05/26 15:05:58;;;;;;;2.20;1.07;;;16.30;99.90;;;;;;4957863;28;20292;-70
2021/05/26 15:08:25;;;;;;;1.93;1.30;;;16.40;99.90;;;;;;4957918;28;20235;-71
2021/05/26 15:10:52;;;;;;;3.47;1.03;;;16.50;99.90;;;;;;4958029;28;20270;-71
2021/05/26 15:13:19;;;;;;;2.23;1.20;;;16.70;99.90;;;;;;4957717;28;20733;-71
2021/05/26 15:15:47;;;;;;;2.03;1.10;;;16.80;99.90;;;;;;4957963;28;20270;-71
2021/05/26 15:18:14;;;;;;;2.50;1.20;;;16.80;99.90;;;;;;4958123;28;20220;-71
2021/05/26 15:20:40;;;;;;;1.20;0.97;;;16.90;99.90;;;;;;4958204;28;20235;-70
2021/05/26 15:23:07;;;;;;;3.93;1.30;;;16.70;99.90;;;;;;4958035;28;20212;-71
2021/05/26 15:25:34;;;;;;;2.00;0.80;;;16.70;99.90;;;;;;4958096;29;20667;-71
2021/05/26 15:28:00;;;;;;;1.80;1.10;;;16.80;99.90;;;;;;4957498;28;20204;-70
2021/05/26 15:30:27;;;;;;;1.50;1.10;;;16.90;99.90;;;;;;4957422;28;20218;-70
2021/05/26 15:32:55;;;;;;;1.47;1.03;;;16.80;99.90;;;;;;4985263;28;20290;-71
2021/05/26 15:35:22;;;;;;;1.27;0.90;;;16.50;99.90;;;;;;4996662;28;20230;-72
2021/05/26 15:37:48;;;;;;;2.60;0.80;;;16.40;99.90;;;;;;4969706;28;20556;-71
2021/05/26 15:40:14;;;;;;;1.30;0.90;;;16.30;99.90;;;;;;4968760;28;20603;-70
2021/05/26 15:42:41;;;;;;;1.47;0.93;;;16.20;99.90;;;;;;4964913;28;20215;-71
2021/05/26 15:45:09;;;;;;;0.80;0.60;;;16.10;99.90;;;;;;4956605;28;20212;-71
2021/05/26 15:47:36;;;;;;;1.77;1.10;;;16.20;99.90;;;;;;4958760;28;20215;-71
2021/05/26 15:50:03;;;;;;;1.30;1.00;;;16.10;99.90;;;;;;4959354;28;20263;-70
2021/05/26 15:52:30;;;;;;;1.53;1.20;;;16.20;99.90;;;;;;4963180;28;20219;-70
2021/05/26 15:54:56;;;;;;;2.33;1.27;;;16.20;99.90;;;;;;4967275;28;20204;-70
2021/05/26 15:57:22;;;;;;;1.63;1.03;;;16.30;99.90;;;;;;4959380;28;20204;-70
2021/05/26 15:59:49;;;;;;;1.27;1.00;;;16.20;99.90;;;;;;4965055;28;20238;-70
2021/05/26 16:02:16;;;;;;;1.10;0.90;;;16.30;99.90;;;;;;4959040;28;20216;-69
2021/05/26 16:04:42;;;;;;;1.13;0.97;;;16.30;99.90;;;;;;4957295;28;20212;-70
2021/05/26 16:07:08;;;;;;;1.17;0.80;;;16.20;99.60;;;;;;4960004;28;20212;-70
2021/05/26 16:09:34;;;;;;;1.60;0.90;;;16.20;98.40;;;;;;4958428;28;20228;-70
2021/05/26 16:12:01;;;;;;;1.13;0.63;;;16.20;97.70;;;;;;4958246;28;20263;-70
2021/05/26 16:14:27;;;;;;;1.70;1.00;;;16.10;97.80;;;;;;4959127;28;20562;-70
2021/05/26 16:16:55;;;;;;;1.63;0.70;;;16.10;98.60;;;;;;4960623;28;20645;-70
2021/05/26 16:19:21;;;;;;;1.33;0.90;;;16.00;98.10;;;;;;4960480;28;20235;-71
2021/05/26 16:21:48;;;;;;;2.60;0.83;;;15.90;98.10;;;;;;4958533;28;20698;-70
2021/05/26 16:24:14;;;;;;;2.73;0.80;;;16.00;98.60;;;;;;4963872;28;20571;-72
2021/05/26 16:26:40;;;;;;;2.57;0.70;;;16.00;98.30;;;;;;4957244;28;20212;-70
2021/05/26 16:29:07;;;;;;;2.20;0.90;;;16.00;99.20;;;;;;4956964;28;20718;-71
2021/05/26 16:31:33;;;;;;;1.50;1.00;;;16.20;99.00;;;;;;4965698;28;20256;-70
2021/05/26 16:34:00;;;;;;;3.57;0.90;;;16.10;98.90;;;;;;4967503;28;20208;-70
2021/05/26 16:36:26;;;;;;;2.90;1.60;;;16.10;99.30;;;;;;4954927;28;20558;-71
2021/05/26 16:38:53;;;;;;;1.27;0.90;;;15.90;98.10;;;;;;4954931;28;20875;-71
2021/05/26 16:41:19;;;;;;;2.47;1.10;;;15.80;99.00;;;;;;4955123;28;20248;-71
2021/05/26 16:43:47;;;;;;;1.30;0.80;;;15.60;98.50;;;;;;4955100;28;20211;-71
2021/05/26 16:46:15;;;;;;;2.20;1.10;;;15.60;99.70;;;;;;4956072;28;20663;-71
2021/05/26 16:48:41;;;;;;;1.17;1.00;;;15.50;99.90;;;;;;4956834;28;20991;-70
2021/05/26 16:51:09;;;;;;;3.50;1.03;;;15.50;99.70;;;;;;4956705;29;20265;-71
2021/05/26 16:53:38;;;;;;;2.17;0.80;;;15.40;99.60;;;;;;4956708;29;20227;-71
2021/05/26 16:56:05;;;;;;;2.83;0.97;;;15.40;99.80;;;;;;4956625;28;20212;-71
2021/05/26 16:58:32;;;;;;;2.13;0.77;;;15.50;99.80;;;;;;4956307;28;20231;-71
2021/05/26 17:00:59;;;;;;;1.40;0.97;;;15.40;99.70;;;;;;4955899;28;20242;-71
2021/05/26 17:03:25;;;;;;;1.90;0.83;;;15.50;99.80;;;;;;4956592;28;20208;-71
2021/05/26 17:05:51;;;;;;;1.00;0.77;;;15.50;99.70;;;;;;4956457;29;20212;-71
2021/05/26 17:08:19;;;;;;;3.57;0.97;;;15.30;99.30;;;;;;4956128;28;20837;-71
2021/05/26 17:10:45;;;;;;;2.43;0.60;;;15.40;99.90;;;;;;4956379;28;20208;-71
2021/05/26 17:13:12;;;;;;;1.40;0.70;;;15.40;99.60;;;;;;4955874;28;20759;-72
2021/05/26 17:15:39;;;;;;;1.63;0.73;;;15.50;99.60;;;;;;4956359;28;20295;-71
2021/05/26 17:18:05;;;;;;;0.93;0.80;;;15.80;99.60;;;;;;4956251;28;20219;-70
2021/05/26 17:20:32;;;;;;;1.10;0.83;;;15.70;98.00;;;;;;4955277;28;20232;-70
2021/05/26 17:22:58;;;;;;;3.77;0.97;;;15.70;98.00;;;;;;4956158;28;20207;-70
2021/05/26 17:25:25;;;;;;;1.03;0.90;;;15.70;98.10;;;;;;4955887;28;20286;-71
2021/05/26 17:27:52;;;;;;;1.07;0.83;;;15.70;98.20;;;;;;4955306;28;20210;-69
2021/05/26 17:30:19;;;;;;;1.53;1.00;;;15.70;98.30;;;;;;4955705;28;20242;-71
2021/05/26 17:32:45;;;;;;;1.57;0.90;;;15.80;98.50;;;;;;4955842;28;20697;-71
2021/05/26 17:35:12;;;;;;;1.30;0.80;;;15.70;98.40;;;;;;4956003;28;20259;-71
2021/05/26 17:37:39;;;;;;;1.23;0.80;;;15.60;97.80;;;;;;4955768;28;20212;-72
2021/05/26 17:40:08;;;;;;;0.93;0.60;;;15.50;98.30;;;;;;4955574;28;20310;-71
2021/05/26 17:42:35;;;;;;;3.47;0.90;;;15.60;98.10;;;;;;4955622;29;20541;-71
2021/05/26 17:45:03;;;;;;;2.30;0.70;;;15.50;97.90;;;;;;4955932;28;20218;-71
2021/05/26 17:47:29;;;;;;;1.27;0.90;;;15.60;98.20;;;;;;4955822;28;20259;-71
2021/05/26 17:49:56;;;;;;;1.00;0.70;;;15.60;98.80;;;;;;4955571;28;20335;-71
2021/05/26 17:52:23;;;;;;;1.37;0.70;;;15.50;99.30;;;;;;4955745;29;20307;-70
2021/05/26 17:54:49;;;;;;;1.80;1.03;;;15.40;98.90;;;;;;4955413;28;20552;-72
2021/05/26 17:57:16;;;;;;;1.07;0.97;;;15.30;99.10;;;;;;4955453;29;20231;-71
2021/05/26 17:59:43;;;;;;;1.97;1.13;;;15.30;98.40;;;;;;4955236;29;20232;-72
2021/05/26 18:02:09;;;;;;;2.37;0.77;;;15.40;98.90;;;;;;4954799;28;20236;-71
2021/05/26 18:04:36;;;;;;;5.83;1.10;;;15.30;98.80;;;;;;4954781;28;20222;-72
2021/05/26 18:07:02;;;;;;;1.10;0.83;;;15.30;99.50;;;;;;4955000;28;20204;-72
2021/05/26 18:09:29;;;;;;;1.60;1.30;;;15.30;99.40;;;;;;4954792;28;20232;-72
2021/05/26 18:11:55;;;;;;;1.20;0.97;;;15.40;99.40;;;;;;4954960;28;20254;-72
2021/05/26 18:14:21;;;;;;;0.70;0.70;;;15.40;99.20;;;;;;4955005;28;20282;-71
2021/05/26 18:16:48;;;;;;;1.60;1.00;;;15.50;99.90;;;;;;4954975;28;20214;-72
2021/05/26 18:19:15;;;;;;;1.90;1.00;;;15.30;98.90;;;;;;4954377;29;20227;-72
2021/05/26 18:21:42;;;;;;;1.80;1.00;;;15.20;98.90;;;;;;4954817;28;20598;-72
2021/05/26 18:24:09;;;;;;;4.17;1.33;;;15.20;99.00;;;;;;4954945;28;20214;-71
2021/05/26 18:26:35;;;;;;;0.90;0.80;;;15.20;99.10;;;;;;4955017;28;20204;-72
2021/05/26 18:29:03;;;;;;;1.27;0.70;;;15.20;99.40;;;;;;4954495;28;20286;-72
2021/05/26 18:31:29;;;;;;;1.93;1.30;;;15.10;99.90;;;;;;4954492;28;20218;-72
2021/05/26 18:33:58;;;;;;;4.10;1.20;;;15.00;99.70;;;;;;4954776;28;20686;-71
2021/05/26 18:36:24;;;;;;;2.60;0.93;;;15.00;99.50;;;;;;4954674;28;20254;-71
2021/05/26 18:38:50;;;;;;;2.10;1.20;;;14.90;99.30;;;;;;4954665;28;20282;-71
2021/05/26 18:41:17;;;;;;;1.17;1.00;;;14.80;99.70;;;;;;4954670;28;20236;-71
2021/05/26 18:43:43;;;;;;;1.50;0.93;;;14.70;99.90;;;;;;4954727;28;20208;-71
2021/05/26 18:46:09;;;;;;;1.73;1.00;;;14.70;99.90;;;;;;4954708;28;20258;-70
2021/05/26 18:48:36;;;;;;;1.87;0.80;;;14.60;99.90;;;;;;4954699;28;20286;-70
2021/05/26 18:51:03;;;;;;;1.37;1.00;;;14.60;99.90;;;;;;4954640;28;20214;-71
2021/05/26 18:53:31;;;;;;;2.77;0.97;;;14.50;99.90;;;;;;4954120;28;20299;-70
2021/05/26 18:55:58;;;;;;;1.60;1.10;;;14.50;99.90;;;;;;4954687;28;20355;-71
2021/05/26 18:58:24;;;;;;;2.23;1.13;;;14.40;99.90;;;;;;4954234;28;20231;-71
2021/05/26 19:00:51;;;;;;;2.30;1.07;;;14.40;99.90;;;;;;4954578;28;20261;-71
2021/05/26 19:03:18;;;;;;;1.87;0.97;;;14.50;99.90;;;;;;4954483;28;20283;-71
2021/05/26 19:05:45;;;;;;;1.53;1.20;;;14.50;99.90;;;;;;4954407;28;20219;-70
2021/05/26 19:08:14;;;;;;;1.50;1.40;;;14.60;99.90;;;;;;4955223;28;20212;-71
2021/05/26 19:10:41;;;;;;;1.83;1.00;;;14.50;99.90;;;;;;4954165;29;20258;-70
2021/05/26 19:13:08;;;;;;;1.57;1.20;;;14.50;99.90;;;;;;4954284;28;20212;-71
2021/05/26 19:15:34;;;;;;;1.87;1.13;;;14.50;99.90;;;;;;4954403;28;20211;-71
2021/05/26 19:18:01;;;;;;;1.63;1.10;;;14.50;99.90;;;;;;4954082;28;20324;-70
2021/05/26 19:20:27;;;;;;;1.43;0.90;;;14.50;99.90;;;;;;4953925;29;20232;-71
2021/05/26 19:22:53;;;;;;;2.93;1.10;;;14.40;99.90;;;;;;4954178;28;20659;-70
2021/05/26 19:25:22;;;;;;;2.43;1.30;;;14.50;99.90;;;;;;4954372;28;20204;-72
2021/05/26 19:27:49;;;;;;;1.93;1.10;;;14.50;99.90;;;;;;4954211;29;20204;-72
2021/05/26 19:30:18;;;;;;;2.73;1.13;;;14.70;99.90;;;;;;4954371;28;20270;-71
2021/05/26 19:32:44;;;;;;;2.00;1.27;;;14.70;99.90;;;;;;4954425;28;20299;-72
2021/05/26 19:35:13;;;;;;;2.03;1.20;;;14.70;99.90;;;;;;4953915;28;20219;-72
2021/05/26 19:37:39;;;;;;;1.43;1.00;;;14.70;99.90;;;;;;4954329;28;20216;-72
2021/05/26 19:40:07;;;;;;;2.00;1.20;;;14.70;99.90;;;;;;4954166;28;20283;-71
2021/05/26 19:42:34;;;;;;;2.00;1.07;;;14.80;99.90;;;;;;4954632;28;20683;-70
2021/05/26 19:45:00;;;;;;;1.50;1.00;;;14.80;99.90;;;;;;4957564;28;20208;-71
2021/05/26 19:47:27;;;;;;;1.67;1.10;;;14.80;99.90;;;;;;4957578;28;20215;-72
2021/05/26 19:49:53;;;;;;;1.40;1.00;;;14.80;99.90;;;;;;4957417;28;20224;-70
2021/05/26 19:52:19;;;;;;;2.07;1.00;;;14.80;99.90;;;;;;4957267;28;20212;-71
2021/05/26 19:54:46;;;;;;;2.20;1.17;;;14.70;99.90;;;;;;4957405;28;20361;-71
2021/05/26 19:57:14;;;;;;;3.20;1.23;;;14.70;99.90;;;;;;4957390;28;20211;-71
2021/05/26 19:59:41;;;;;;;1.40;1.20;;;14.60;99.90;;;;;;4957174;28;20228;-71
2021/05/26 20:02:07;;;;;;;2.00;1.07;;;14.50;99.90;;;;;;4957263;28;20710;-71
2021/05/26 20:04:34;;;;;;;2.57;1.10;;;14.60;99.90;;;;;;4957309;28;20235;-71
2021/05/26 20:07:00;;;;;;;1.60;1.00;;;14.60;99.90;;;;;;4957451;28;20266;-70